Time;durP1;ratioP1;P1;durP2;ratioP2;P2;SDS_P1;SDS_P2;PMS_P1;PMS_P2;Temp;Humidity;BMP_temperature;BMP_pressure;BME280_temperature;BME280_humidity;BME280_pressure;Samples;Min_cycle;Max_cycle;Signal;HPM_P1;HPM_P2
2022/05/08 00:00:51;;;;;;;0.50;0.50;;;22.00;57.20;;;;;;5084768;28;20028;-42
2022/05/08 00:03:17;;;;;;;0.75;0.60;;;22.00;57.10;;;;;;5085389;28;20024;-42
2022/05/08 00:05:43;;;;;;;0.73;0.68;;;22.00;57.10;;;;;;5084111;28;20088;-42
2022/05/08 00:08:09;;;;;;;0.85;0.80;;;22.00;57.00;;;;;;5084110;28;20198;-43
2022/05/08 00:10:35;;;;;;;0.80;0.80;;;22.00;57.00;;;;;;5085001;28;20044;-40
2022/05/08 00:13:01;;;;;;;0.70;0.70;;;22.00;57.00;;;;;;5084968;28;20029;-42
2022/05/08 00:15:28;;;;;;;0.60;0.60;;;22.00;57.00;;;;;;5084984;28;20033;-42
2022/05/08 00:17:54;;;;;;;0.80;0.80;;;22.00;57.00;;;;;;5095314;28;20020;-43
2022/05/08 00:20:20;;;;;;;0.70;0.60;;;22.00;57.10;;;;;;5105522;28;20028;-41
2022/05/08 00:22:46;;;;;;;0.68;0.68;;;22.00;57.10;;;;;;5100884;28;20025;-41
2022/05/08 00:25:12;;;;;;;0.60;0.60;;;22.00;57.10;;;;;;5085169;28;20043;-42
2022/05/08 00:27:39;;;;;;;0.55;0.55;;;22.00;57.10;;;;;;5084589;28;20493;-42
2022/05/08 00:30:05;;;;;;;0.75;0.70;;;22.00;57.10;;;;;;5084705;28;20024;-41
2022/05/08 00:32:31;;;;;;;0.70;0.70;;;22.00;57.20;;;;;;5084742;28;20050;-42
2022/05/08 00:34:57;;;;;;;0.70;0.70;;;22.00;57.10;;;;;;5084908;28;20036;-41
2022/05/08 00:37:24;;;;;;;0.50;0.50;;;22.00;57.10;;;;;;5069043;28;20024;-42
2022/05/08 00:39:50;;;;;;;0.70;0.70;;;22.00;57.10;;;;;;5069275;28;20036;-42
2022/05/08 00:42:16;;;;;;;0.60;0.60;;;22.00;57.10;;;;;;5084467;28;20036;-41
2022/05/08 00:44:42;;;;;;;0.60;0.60;;;22.00;57.10;;;;;;5084599;28;20025;-42
2022/05/08 00:47:08;;;;;;;0.65;0.65;;;22.00;57.10;;;;;;5088636;28;20028;-43
2022/05/08 00:49:34;;;;;;;0.60;0.60;;;22.00;57.10;;;;;;5104857;28;20028;-42
2022/05/08 00:52:00;;;;;;;0.70;0.70;;;22.00;57.10;;;;;;5104279;28;20020;-42
2022/05/08 00:54:26;;;;;;;0.50;0.50;;;21.90;57.00;;;;;;5085198;28;20092;-42
2022/05/08 00:56:53;;;;;;;0.73;0.73;;;22.00;57.10;;;;;;5079521;28;20135;-42
2022/05/08 00:59:19;;;;;;;0.68;0.68;;;21.90;57.10;;;;;;5073248;28;20102;-41
2022/05/08 01:01:45;;;;;;;0.63;0.63;;;21.90;57.10;;;;;;5083815;28;20029;-41
2022/05/08 01:04:12;;;;;;;0.60;0.60;;;21.90;57.00;;;;;;5084376;28;20036;-42
2022/05/08 01:06:38;;;;;;;0.65;0.60;;;21.90;57.00;;;;;;5078302;28;20029;-42
2022/05/08 01:09:04;;;;;;;0.60;0.60;;;21.90;57.00;;;;;;5082733;28;20024;-42
2022/05/08 01:11:30;;;;;;;0.75;0.68;;;21.90;57.00;;;;;;5083158;28;20041;-42
2022/05/08 01:13:56;;;;;;;0.73;0.70;;;21.90;57.00;;;;;;5084032;28;20068;-42
2022/05/08 01:16:22;;;;;;;0.60;0.55;;;21.90;57.00;;;;;;5083809;28;20115;-42
2022/05/08 01:18:49;;;;;;;0.77;0.60;;;21.90;57.00;;;;;;5102085;28;20028;-43
2022/05/08 01:21:22;;;;;;;0.73;0.60;;;21.90;57.00;;;;;;5103997;28;20024;-42
2022/05/08 01:23:48;;;;;;;1.00;0.65;;;21.90;57.00;;;;;;5091200;28;20020;-44
2022/05/08 01:26:21;;;;;;;0.70;0.70;;;21.90;57.00;;;;;;5083750;28;20017;-42
2022/05/08 01:28:47;;;;;;;0.52;0.50;;;21.90;57.00;;;;;;5083822;28;20048;-42
2022/05/08 01:31:13;;;;;;;0.47;0.47;;;21.90;57.00;;;;;;5083415;28;20024;-42
2022/05/08 01:33:40;;;;;;;0.70;0.70;;;21.90;57.00;;;;;;5083630;28;20028;-42
2022/05/08 01:36:06;;;;;;;0.70;0.70;;;21.90;57.00;;;;;;5079324;28;20029;-43
2022/05/08 01:38:32;;;;;;;0.68;0.68;;;21.90;57.00;;;;;;5063980;28;20110;-43
2022/05/08 01:41:03;;;;;;;0.60;0.60;;;21.90;57.10;;;;;;5063686;28;20047;-41
2022/05/08 01:43:36;;;;;;;0.70;0.70;;;21.90;57.00;;;;;;5063184;28;20025;-42
2022/05/08 01:46:06;;;;;;;0.70;0.63;;;21.90;56.90;;;;;;5063308;28;20113;-42
2022/05/08 01:48:52;;;;;;;0.70;0.70;;;21.80;56.90;;;;;;5094036;28;20054;-41
2022/05/08 01:51:18;;;;;;;1.02;0.60;;;21.90;56.90;;;;;;5060666;28;20100;-43
2022/05/08 01:53:44;;;;;;;0.70;0.70;;;21.80;56.90;;;;;;5059240;28;20044;-42
2022/05/08 01:56:11;;;;;;;0.65;0.65;;;21.80;56.90;;;;;;5060610;28;20037;-42
2022/05/08 01:58:37;;;;;;;0.82;0.60;;;21.80;56.80;;;;;;5040887;28;20065;-42
2022/05/08 02:01:04;;;;;;;0.68;0.68;;;21.80;56.80;;;;;;5039986;28;20037;-42
2022/05/08 02:03:31;;;;;;;0.70;0.70;;;21.80;56.70;;;;;;5040524;28;20038;-42
2022/05/08 02:05:57;;;;;;;0.65;0.60;;;21.80;56.70;;;;;;5040386;28;20033;-42
2022/05/08 02:08:23;;;;;;;0.50;0.50;;;21.80;56.80;;;;;;5040152;28;20058;-41
2022/05/08 02:10:51;;;;;;;1.00;0.60;;;21.80;56.70;;;;;;5040609;28;20054;-42
2022/05/08 02:13:17;;;;;;;0.60;0.60;;;21.80;56.70;;;;;;5039926;28;20037;-41
2022/05/08 02:15:43;;;;;;;1.00;0.80;;;21.80;56.70;;;;;;5040317;28;20071;-42
2022/05/08 02:18:10;;;;;;;2.58;0.70;;;21.80;56.60;;;;;;5053091;28;20024;-42
2022/05/08 02:20:36;;;;;;;0.73;0.73;;;21.80;56.70;;;;;;5060471;28;20394;-42
2022/05/08 02:23:02;;;;;;;0.40;0.40;;;21.80;56.70;;;;;;5053700;28;20607;-43
2022/05/08 02:25:30;;;;;;;0.65;0.65;;;21.80;56.70;;;;;;5039998;28;20033;-41
2022/05/08 02:27:56;;;;;;;0.70;0.70;;;21.70;56.60;;;;;;5052946;28;20076;-42
2022/05/08 02:30:23;;;;;;;0.73;0.68;;;21.70;56.70;;;;;;5082992;28;20024;-41
2022/05/08 02:32:53;;;;;;;0.60;0.60;;;21.70;56.60;;;;;;5082582;28;20028;-42
2022/05/08 02:35:23;;;;;;;0.88;0.77;;;21.70;56.60;;;;;;5083133;28;20032;-42
2022/05/08 02:37:50;;;;;;;0.70;0.70;;;21.70;56.60;;;;;;5071544;28;20029;-42
2022/05/08 02:40:16;;;;;;;;;;;21.70;56.60;;;;;;5083084;28;20029;-42
2022/05/08 02:42:42;;;;;;;0.68;0.68;;;21.70;56.60;;;;;;5082922;28;19934;-41
2022/05/08 02:45:28;;;;;;;0.73;0.68;;;21.70;56.60;;;;;;5100441;28;20108;-42
2022/05/08 02:47:56;;;;;;;0.65;0.65;;;21.70;56.60;;;;;;5100441;28;20036;-43
2022/05/08 02:50:22;;;;;;;0.65;0.65;;;21.70;56.60;;;;;;5100345;28;20027;-43
2022/05/08 02:52:49;;;;;;;0.70;0.60;;;21.60;56.50;;;;;;5095680;28;20020;-42
2022/05/08 03:00:45;;;;;;;0.50;0.50;;;21.70;56.50;;;;;;5082044;28;20043;-41
2022/05/08 03:03:11;;;;;;;0.68;0.68;;;21.60;56.50;;;;;;5083707;28;20052;-42
2022/05/08 03:05:38;;;;;;;0.77;0.70;;;21.60;56.40;;;;;;5083317;28;20032;-42
2022/05/08 03:08:07;;;;;;;1.02;0.68;;;21.60;56.40;;;;;;5079429;28;20029;-41
2022/05/08 03:13:18;;;;;;;0.65;0.57;;;21.60;56.40;;;;;;5083465;28;20130;-41
2022/05/08 03:15:45;;;;;;;1.08;0.80;;;21.60;56.40;;;;;;5083541;28;20029;-41
2022/05/08 03:18:11;;;;;;;0.80;0.80;;;21.60;56.40;;;;;;5096054;28;20028;-42
2022/05/08 03:20:37;;;;;;;0.90;0.70;;;21.60;56.40;;;;;;5103963;28;20116;-42
2022/05/08 03:23:04;;;;;;;0.60;0.60;;;21.60;56.40;;;;;;5099191;28;20103;-43
2022/05/08 03:25:30;;;;;;;0.70;0.70;;;21.60;56.40;;;;;;5085876;28;20024;-42
2022/05/08 03:27:56;;;;;;;0.60;0.50;;;21.60;56.40;;;;;;5085100;28;20041;-42
2022/05/08 03:30:24;;;;;;;0.80;0.80;;;21.60;56.30;;;;;;5085832;28;20047;-42
2022/05/08 03:32:50;;;;;;;0.60;0.60;;;21.50;56.30;;;;;;5085957;28;20033;-43
2022/05/08 03:35:16;;;;;;;0.77;0.63;;;21.50;56.30;;;;;;5085943;28;20576;-41
2022/05/08 03:37:42;;;;;;;0.77;0.60;;;21.50;56.30;;;;;;5078158;28;20036;-43
2022/05/08 03:40:09;;;;;;;0.60;0.60;;;21.50;56.40;;;;;;5086020;28;20028;-41
2022/05/08 03:42:35;;;;;;;0.60;0.60;;;21.50;56.40;;;;;;5085880;28;20027;-42
2022/05/08 03:45:02;;;;;;;0.93;0.70;;;21.50;56.40;;;;;;5085302;28;20040;-41
2022/05/08 03:47:28;;;;;;;0.57;0.57;;;21.50;56.40;;;;;;5092010;28;20064;-42
2022/05/08 03:49:54;;;;;;;0.70;0.70;;;21.50;56.40;;;;;;5105889;28;20485;-43
2022/05/08 03:52:20;;;;;;;2.13;0.70;;;21.50;56.40;;;;;;5105891;28;20042;-43
2022/05/08 03:54:46;;;;;;;0.70;0.60;;;21.50;56.40;;;;;;5085224;28;20063;-42
2022/05/08 03:57:12;;;;;;;0.60;0.50;;;21.40;56.40;;;;;;5077329;28;20036;-41
2022/05/08 03:59:38;;;;;;;0.75;0.70;;;21.50;56.40;;;;;;5065504;28;20051;-42
2022/05/08 04:02:04;;;;;;;0.57;0.57;;;21.40;56.40;;;;;;5065326;28;20025;-43
2022/05/08 04:04:31;;;;;;;0.70;0.70;;;21.40;56.50;;;;;;5065312;28;20045;-41
2022/05/08 04:06:57;;;;;;;0.73;0.73;;;21.40;56.40;;;;;;5076671;28;20068;-44
2022/05/08 04:09:23;;;;;;;0.77;0.77;;;21.40;56.40;;;;;;5084706;28;20196;-42
2022/05/08 04:11:49;;;;;;;0.85;0.70;;;21.40;56.40;;;;;;5084281;28;20078;-42
2022/05/08 04:14:15;;;;;;;0.63;0.60;;;21.40;56.40;;;;;;5085203;28;20073;-42
2022/05/08 04:16:41;;;;;;;0.70;0.70;;;21.40;56.40;;;;;;5085346;28;20036;-42
2022/05/08 04:19:07;;;;;;;0.73;0.73;;;21.30;56.40;;;;;;5092959;28;20032;-41
2022/05/08 04:21:33;;;;;;;0.70;0.70;;;21.30;56.40;;;;;;5085124;28;20040;-46
2022/05/08 04:24:17;;;;;;;0.70;0.55;;;21.40;56.40;;;;;;5099245;28;20081;-42
2022/05/08 04:26:44;;;;;;;0.50;0.50;;;21.30;56.40;;;;;;5100281;28;20040;-43
2022/05/08 04:29:10;;;;;;;0.82;0.50;;;21.30;56.40;;;;;;5084426;28;20751;-42
2022/05/08 04:31:36;;;;;;;0.65;0.50;;;21.30;56.40;;;;;;5084848;28;20055;-42
2022/05/08 04:34:02;;;;;;;0.60;0.60;;;21.30;56.40;;;;;;5084765;28;20048;-42
2022/05/08 04:36:29;;;;;;;0.60;0.60;;;21.30;56.40;;;;;;5077188;28;20032;-42
2022/05/08 04:38:56;;;;;;;0.85;0.65;;;21.30;56.40;;;;;;5084104;28;20040;-42
2022/05/08 04:41:22;;;;;;;0.50;0.50;;;21.30;56.40;;;;;;5084525;28;20037;-43
2022/05/08 04:43:48;;;;;;;0.70;0.70;;;21.20;56.40;;;;;;5084671;28;20028;-42
2022/05/08 04:46:15;;;;;;;0.60;0.60;;;21.20;56.40;;;;;;5084277;28;20040;-42
2022/05/08 04:48:42;;;;;;;0.68;0.50;;;21.20;56.40;;;;;;5101460;28;20032;-42
2022/05/08 04:51:08;;;;;;;0.60;0.60;;;21.20;56.30;;;;;;5104919;28;20058;-41
2022/05/08 04:53:34;;;;;;;0.55;0.55;;;21.20;56.30;;;;;;5093832;28;20028;-41
2022/05/08 04:56:00;;;;;;;0.70;0.70;;;21.20;56.30;;;;;;5084043;28;20031;-42
2022/05/08 04:58:29;;;;;;;0.60;0.52;;;21.20;56.40;;;;;;5066683;28;20029;-41
2022/05/08 05:00:57;;;;;;;0.60;0.60;;;21.20;56.40;;;;;;5063776;28;20029;-42
2022/05/08 05:03:24;;;;;;;0.70;0.52;;;21.20;56.30;;;;;;5064169;28;20060;-42
2022/05/08 05:05:50;;;;;;;0.60;0.60;;;21.20;56.40;;;;;;5064078;28;20031;-42
2022/05/08 05:08:18;;;;;;;0.50;0.50;;;21.10;56.30;;;;;;5078870;28;20045;-42
2022/05/08 05:10:44;;;;;;;0.50;0.50;;;21.10;56.30;;;;;;5083482;28;20052;-42
2022/05/08 05:13:11;;;;;;;0.60;0.60;;;21.10;56.30;;;;;;5084203;28;20032;-42
2022/05/08 05:15:37;;;;;;;0.57;0.57;;;21.10;56.30;;;;;;5083373;28;20025;-42
2022/05/08 05:18:04;;;;;;;0.40;0.40;;;21.10;56.40;;;;;;5091490;28;20029;-42
2022/05/08 05:20:30;;;;;;;0.40;0.40;;;21.10;56.40;;;;;;5083283;28;20032;-41
2022/05/08 05:23:00;;;;;;;0.50;0.50;;;21.00;56.30;;;;;;5088508;28;20070;-42
2022/05/08 05:25:27;;;;;;;0.50;0.50;;;21.00;56.20;;;;;;5103305;28;20076;-41
2022/05/08 05:27:54;;;;;;;0.50;0.50;;;21.00;56.30;;;;;;5077191;28;20675;-42
2022/05/08 05:30:20;;;;;;;0.80;0.50;;;21.00;56.30;;;;;;5063160;28;20264;-41
2022/05/08 05:32:46;;;;;;;0.60;0.60;;;21.00;56.30;;;;;;5063624;28;20170;-42
2022/05/08 05:35:12;;;;;;;0.53;0.53;;;21.00;56.20;;;;;;5063537;28;20025;-42
2022/05/08 05:37:39;;;;;;;0.63;0.63;;;21.00;56.40;;;;;;5080581;28;20036;-43
2022/05/08 05:40:08;;;;;;;0.80;0.65;;;21.00;56.40;;;;;;5083352;28;20021;-42
2022/05/08 05:42:34;;;;;;;0.73;0.50;;;21.00;56.30;;;;;;5083539;28;20066;-41
2022/05/08 05:45:00;;;;;;;0.50;0.50;;;20.90;56.20;;;;;;5083285;28;20538;-42
2022/05/08 05:50:31;;;;;;;0.50;0.50;;;20.90;56.30;;;;;;5103516;28;20063;-41
2022/05/08 05:52:57;;;;;;;0.63;0.50;;;20.90;56.20;;;;;;5054920;28;20048;-41
2022/05/08 05:55:24;;;;;;;0.50;0.50;;;20.90;56.40;;;;;;5040233;28;20033;-41
2022/05/08 05:57:50;;;;;;;0.40;0.40;;;20.90;56.40;;;;;;5040280;28;20514;-42
2022/05/08 06:00:18;;;;;;;0.60;0.60;;;20.90;56.40;;;;;;5039825;28;20033;-42
2022/05/08 06:02:45;;;;;;;1.02;0.60;;;20.90;56.40;;;;;;5040542;28;20049;-42
2022/05/08 06:05:12;;;;;;;0.50;0.50;;;20.80;56.30;;;;;;5040187;28;20038;-41
2022/05/08 06:07:38;;;;;;;0.50;0.50;;;20.80;56.30;;;;;;5040316;28;20056;-41
2022/05/08 06:10:06;;;;;;;0.50;0.50;;;20.80;56.30;;;;;;5039595;28;20072;-42
2022/05/08 06:12:32;;;;;;;0.68;0.40;;;20.80;56.40;;;;;;5039880;28;20029;-41
2022/05/08 06:14:59;;;;;;;0.90;0.65;;;20.80;56.50;;;;;;5040192;28;20036;-42
2022/05/08 06:17:25;;;;;;;0.95;0.70;;;20.70;56.40;;;;;;5040159;28;20037;-42
2022/05/08 06:19:51;;;;;;;0.40;0.40;;;20.80;56.50;;;;;;5040031;28;20033;-42
2022/05/08 06:22:17;;;;;;;0.50;0.50;;;20.70;56.50;;;;;;5040396;28;20075;-42
2022/05/08 06:24:43;;;;;;;0.60;0.50;;;20.70;56.60;;;;;;5059721;28;20832;-40
2022/05/08 06:27:10;;;;;;;0.52;0.50;;;20.70;56.50;;;;;;5052298;28;20041;-41
2022/05/08 06:29:36;;;;;;;0.43;0.43;;;20.70;56.60;;;;;;5047193;28;20025;-43
2022/05/08 06:32:02;;;;;;;0.50;0.40;;;20.70;56.60;;;;;;5062402;28;20039;-41
2022/05/08 06:34:29;;;;;;;0.40;0.40;;;20.70;56.60;;;;;;5063114;28;20021;-41
2022/05/08 06:36:55;;;;;;;0.40;0.40;;;20.70;56.50;;;;;;5077924;28;20060;-42
2022/05/08 06:39:21;;;;;;;0.95;0.50;;;20.70;56.50;;;;;;5086721;28;20087;-42
2022/05/08 06:41:48;;;;;;;0.50;0.40;;;20.70;56.60;;;;;;5086528;28;20092;-41
2022/05/08 06:44:14;;;;;;;0.50;0.40;;;20.60;56.60;;;;;;5086840;28;20092;-42
2022/05/08 06:46:40;;;;;;;0.40;0.40;;;20.60;56.70;;;;;;5086283;28;20289;-41
2022/05/08 06:49:07;;;;;;;0.55;0.55;;;20.60;56.50;;;;;;5107110;28;20158;-41
2022/05/08 06:51:34;;;;;;;0.60;0.50;;;20.60;56.60;;;;;;5106716;28;20051;-42
2022/05/08 06:54:00;;;;;;;0.47;0.45;;;20.60;56.60;;;;;;5092505;28;20095;-40
2022/05/08 06:56:26;;;;;;;0.53;0.53;;;20.50;56.50;;;;;;5085098;28;20032;-41
2022/05/08 07:01:38;;;;;;;0.40;0.40;;;20.50;56.60;;;;;;5065767;28;20055;-42
2022/05/08 07:04:06;;;;;;;0.40;0.40;;;20.50;56.80;;;;;;5066368;28;20053;-42
2022/05/08 07:06:32;;;;;;;0.40;0.40;;;20.50;56.70;;;;;;5074235;28;20071;-41
2022/05/08 07:08:58;;;;;;;1.38;0.47;;;20.50;56.60;;;;;;5086160;28;20060;-43
2022/05/08 07:11:25;;;;;;;0.40;0.40;;;20.50;56.70;;;;;;5085000;28;20041;-42
2022/05/08 07:13:51;;;;;;;0.32;0.32;;;20.50;56.60;;;;;;5086331;28;20040;-41
2022/05/08 07:16:18;;;;;;;0.40;0.40;;;20.40;56.80;;;;;;5086055;28;20029;-41
2022/05/08 07:18:44;;;;;;;1.65;0.40;;;20.40;56.60;;;;;;5086181;28;20125;-42
2022/05/08 07:21:11;;;;;;;0.75;0.52;;;20.40;56.60;;;;;;5085674;28;20514;-42
2022/05/08 07:23:37;;;;;;;;;;;20.40;56.60;;;;;;5086220;28;20067;-42
2022/05/08 07:26:03;;;;;;;0.50;0.50;;;20.40;56.70;;;;;;5085392;28;19908;-41
2022/05/08 07:28:29;;;;;;;0.52;0.50;;;20.40;56.70;;;;;;5067717;28;20104;-41
2022/05/08 07:30:56;;;;;;;0.40;0.40;;;20.40;56.60;;;;;;5065405;28;20400;-41
2022/05/08 07:33:22;;;;;;;0.47;0.40;;;20.30;56.60;;;;;;5065959;28;20025;-42
2022/05/08 07:38:32;;;;;;;0.50;0.40;;;20.30;56.60;;;;;;5082791;28;20051;-42
2022/05/08 07:40:59;;;;;;;0.40;0.40;;;20.30;56.60;;;;;;5085310;28;20113;-41
2022/05/08 07:43:25;;;;;;;0.40;0.40;;;20.30;56.70;;;;;;5085695;28;20103;-42
2022/05/08 07:45:52;;;;;;;0.40;0.40;;;20.30;56.70;;;;;;5085120;28;20060;-42
2022/05/08 07:48:18;;;;;;;0.68;0.32;;;20.20;56.60;;;;;;5098210;28;20039;-43
2022/05/08 07:50:45;;;;;;;0.70;0.40;;;20.20;56.60;;;;;;5105996;28;20020;-42
2022/05/08 07:53:15;;;;;;;0.40;0.40;;;20.20;56.60;;;;;;5097741;28;20560;-41
2022/05/08 07:55:41;;;;;;;1.70;0.45;;;20.20;56.50;;;;;;5085118;28;20050;-42
2022/05/08 07:58:09;;;;;;;0.52;0.40;;;20.20;56.60;;;;;;5069683;28;20047;-42
2022/05/08 08:00:57;;;;;;;0.50;0.40;;;20.20;56.60;;;;;;5065286;28;20063;-43
2022/05/08 08:03:28;;;;;;;0.50;0.50;;;20.20;56.60;;;;;;5022702;28;20034;-41
2022/05/08 08:05:54;;;;;;;1.00;0.40;;;20.20;56.60;;;;;;5025241;28;20504;-41
2022/05/08 08:08:25;;;;;;;0.30;0.30;;;20.10;56.60;;;;;;5041791;28;20052;-41
2022/05/08 08:10:52;;;;;;;0.40;0.40;;;20.10;56.70;;;;;;5042188;28;20042;-43
2022/05/08 08:13:19;;;;;;;0.40;0.40;;;20.10;56.60;;;;;;5041958;28;20147;-41
2022/05/08 08:15:47;;;;;;;0.45;0.30;;;20.10;56.70;;;;;;5041658;28;20033;-43
2022/05/08 08:18:13;;;;;;;0.50;0.50;;;20.10;56.70;;;;;;5055061;28;20383;-41
2022/05/08 08:20:39;;;;;;;0.40;0.40;;;20.10;56.70;;;;;;5061900;28;20037;-41
2022/05/08 08:23:05;;;;;;;0.85;0.40;;;20.10;56.70;;;;;;5055411;28;20537;-41
2022/05/08 08:25:32;;;;;;;0.85;0.47;;;20.00;56.60;;;;;;5041898;28;20033;-43
2022/05/08 08:27:58;;;;;;;0.32;0.32;;;20.00;56.70;;;;;;5041385;28;20079;-41
2022/05/08 08:30:24;;;;;;;0.40;0.40;;;20.00;56.70;;;;;;5041957;28;20025;-41
2022/05/08 08:32:50;;;;;;;0.40;0.40;;;20.00;56.70;;;;;;5041679;28;20040;-42
2022/05/08 08:35:16;;;;;;;0.50;0.50;;;20.00;56.70;;;;;;5041483;28;20854;-41
2022/05/08 08:37:42;;;;;;;0.38;0.38;;;20.00;56.70;;;;;;5024975;28;20040;-42
2022/05/08 08:40:09;;;;;;;0.50;0.50;;;19.90;56.70;;;;;;5050022;28;20080;-41
2022/05/08 08:42:35;;;;;;;0.50;0.50;;;19.90;56.80;;;;;;5064284;28;20063;-41
2022/05/08 08:48:06;;;;;;;0.40;0.40;;;19.90;56.80;;;;;;5093547;28;20047;-41
2022/05/08 08:50:32;;;;;;;0.50;0.50;;;19.90;56.80;;;;;;5104487;28;20028;-41
2022/05/08 08:52:59;;;;;;;0.37;0.30;;;19.90;56.90;;;;;;5098541;28;20054;-41
2022/05/08 08:55:26;;;;;;;0.43;0.43;;;19.80;56.80;;;;;;5084239;28;20052;-41
2022/05/08 08:57:52;;;;;;;1.88;0.45;;;19.80;56.80;;;;;;5070907;28;20037;-41
2022/05/08 09:00:18;;;;;;;0.32;0.32;;;19.80;56.80;;;;;;5063846;28;20139;-42
2022/05/08 09:02:47;;;;;;;0.40;0.40;;;19.80;56.90;;;;;;5063566;28;20032;-41
2022/05/08 09:05:13;;;;;;;0.40;0.40;;;19.80;56.90;;;;;;5064125;28;20025;-42
2022/05/08 09:07:49;;;;;;;0.50;0.50;;;19.80;56.90;;;;;;5063648;28;20517;-43
2022/05/08 09:10:22;;;;;;;0.50;0.50;;;19.80;57.00;;;;;;5063606;28;20045;-42
2022/05/08 09:12:54;;;;;;;0.40;0.40;;;19.80;56.90;;;;;;5063561;28;20040;-42
2022/05/08 09:15:27;;;;;;;1.02;0.60;;;19.70;57.00;;;;;;5063598;28;20108;-41
2022/05/08 09:18:07;;;;;;;0.32;0.32;;;19.70;57.00;;;;;;5076690;28;20029;-40
2022/05/08 09:20:39;;;;;;;0.50;0.50;;;19.70;57.00;;;;;;5063737;28;20029;-42
2022/05/08 09:23:12;;;;;;;0.40;0.40;;;19.70;57.00;;;;;;5069726;28;20024;-41
2022/05/08 09:25:46;;;;;;;0.60;0.60;;;19.70;57.00;;;;;;5083092;28;20027;-42
2022/05/08 09:28:13;;;;;;;0.60;0.52;;;19.70;57.10;;;;;;5082424;28;20045;-40
2022/05/08 09:31:01;;;;;;;0.45;0.45;;;19.70;57.10;;;;;;5083291;28;20017;-42
2022/05/08 09:33:29;;;;;;;0.40;0.40;;;19.60;57.10;;;;;;5082975;28;20713;-42
2022/05/08 09:35:55;;;;;;;0.40;0.40;;;19.60;57.10;;;;;;5083356;28;20025;-42
2022/05/08 09:38:21;;;;;;;0.60;0.50;;;19.60;57.20;;;;;;5083252;28;20055;-41
2022/05/08 09:41:06;;;;;;;0.50;0.40;;;19.60;57.20;;;;;;5083253;28;20132;-41
2022/05/08 09:43:34;;;;;;;0.50;0.45;;;19.60;57.20;;;;;;5083226;28;20028;-42
2022/05/08 09:46:01;;;;;;;0.50;0.50;;;19.50;57.20;;;;;;5082998;28;20024;-40
2022/05/08 09:48:32;;;;;;;0.50;0.50;;;19.50;57.20;;;;;;5098013;28;20040;-42
2022/05/08 09:51:04;;;;;;;0.40;0.40;;;19.50;57.30;;;;;;5103495;28;20092;-42
2022/05/08 09:53:31;;;;;;;0.50;0.40;;;19.50;57.30;;;;;;5093315;28;20017;-41
2022/05/08 09:55:58;;;;;;;0.52;0.47;;;19.50;57.30;;;;;;5082851;28;20025;-41
2022/05/08 09:58:25;;;;;;;0.80;0.40;;;19.50;57.20;;;;;;5081869;28;20058;-40
2022/05/08 10:00:51;;;;;;;0.45;0.45;;;19.50;57.30;;;;;;5082852;28;20066;-42
2022/05/08 10:03:18;;;;;;;0.50;0.50;;;19.40;57.30;;;;;;5082887;28;20548;-41
2022/05/08 10:05:44;;;;;;;0.55;0.40;;;19.50;57.40;;;;;;5083069;28;20035;-40
2022/05/08 10:08:12;;;;;;;0.40;0.40;;;19.40;57.30;;;;;;5068689;28;20410;-43
2022/05/08 10:14:00;;;;;;;;;;;19.40;57.40;;;;;;5081717;28;20043;-41
2022/05/08 10:16:45;;;;;;;0.43;0.40;;;19.40;57.40;;;;;;5062734;28;19931;-41
2022/05/08 10:19:23;;;;;;;0.60;0.50;;;19.30;57.40;;;;;;5062776;28;20025;-41
2022/05/08 10:22:06;;;;;;;0.40;0.40;;;19.30;57.40;;;;;;5062696;28;20108;-40
2022/05/08 10:24:40;;;;;;;0.57;0.50;;;19.30;57.40;;;;;;5099833;28;20047;-41
2022/05/08 10:27:14;;;;;;;0.55;0.55;;;19.30;57.50;;;;;;5094927;28;20034;-41
2022/05/08 10:29:50;;;;;;;0.60;0.50;;;19.30;57.50;;;;;;5082755;28;20032;-40
2022/05/08 10:32:31;;;;;;;0.50;0.50;;;19.30;57.50;;;;;;5081070;28;20031;-41
2022/05/08 10:35:03;;;;;;;0.40;0.40;;;19.30;57.50;;;;;;5082302;28;20016;-41
2022/05/08 10:37:30;;;;;;;0.50;0.50;;;19.20;57.50;;;;;;5082605;28;20107;-41
2022/05/08 10:39:56;;;;;;;1.95;0.50;;;19.20;57.50;;;;;;5082393;28;20040;-41
2022/05/08 10:42:35;;;;;;;0.55;0.50;;;19.20;57.60;;;;;;5082836;28;20044;-40
2022/05/08 10:45:01;;;;;;;0.80;0.73;;;19.20;57.60;;;;;;5082313;28;20025;-43
2022/05/08 10:47:33;;;;;;;0.60;0.60;;;19.20;57.60;;;;;;5088852;28;20024;-41
2022/05/08 10:50:03;;;;;;;0.65;0.45;;;19.20;57.60;;;;;;5102719;28;20118;-41
2022/05/08 10:52:33;;;;;;;0.40;0.40;;;19.10;57.60;;;;;;5101248;28;20024;-41
2022/05/08 10:55:00;;;;;;;0.47;0.47;;;19.10;57.60;;;;;;5082162;28;20029;-40
2022/05/08 10:57:32;;;;;;;0.45;0.38;;;19.10;57.60;;;;;;5081476;28;20032;-41
2022/05/08 11:00:03;;;;;;;0.40;0.40;;;19.10;57.60;;;;;;5082103;28;20062;-41
2022/05/08 11:02:42;;;;;;;0.30;0.30;;;19.10;57.60;;;;;;5082533;28;20059;-41
2022/05/08 11:05:09;;;;;;;0.50;0.50;;;19.10;57.70;;;;;;5082420;28;20039;-41
2022/05/08 11:07:38;;;;;;;0.60;0.47;;;19.10;57.70;;;;;;5073008;28;20080;-41
2022/05/08 11:10:14;;;;;;;0.60;0.50;;;19.10;57.70;;;;;;5061936;28;20163;-41
2022/05/08 11:13:03;;;;;;;0.50;0.50;;;19.00;57.70;;;;;;5062467;28;20036;-41
2022/05/08 11:15:34;;;;;;;0.40;0.40;;;19.00;57.80;;;;;;5062044;28;20029;-41
2022/05/08 11:18:22;;;;;;;0.50;0.50;;;19.00;57.70;;;;;;5095327;28;20527;-41
2022/05/08 11:20:59;;;;;;;0.50;0.50;;;19.00;58.30;;;;;;5100720;28;20028;-40
2022/05/08 11:23:44;;;;;;;0.68;0.60;;;19.00;57.80;;;;;;5095081;28;20062;-41
2022/05/08 11:26:11;;;;;;;0.50;0.50;;;19.00;57.80;;;;;;5062578;28;20659;-39
2022/05/08 11:28:47;;;;;;;0.75;0.50;;;19.00;57.80;;;;;;5082387;28;20045;-41
2022/05/08 11:31:15;;;;;;;0.88;0.50;;;19.00;57.80;;;;;;5083078;28;20021;-40
2022/05/08 11:36:35;;;;;;;0.55;0.55;;;18.90;57.80;;;;;;5083251;28;20067;-41
2022/05/08 11:39:05;;;;;;;0.63;0.47;;;18.90;57.80;;;;;;5083123;28;20150;-41
2022/05/08 11:41:36;;;;;;;0.50;0.50;;;18.90;57.80;;;;;;5082791;28;20024;-41
2022/05/08 11:44:15;;;;;;;0.77;0.45;;;18.90;57.80;;;;;;5083092;28;20151;-41
2022/05/08 11:46:46;;;;;;;0.47;0.43;;;18.90;57.90;;;;;;5082554;28;20028;-41
2022/05/08 11:49:25;;;;;;;0.73;0.50;;;18.90;57.90;;;;;;5083002;28;20051;-41
2022/05/08 11:51:52;;;;;;;0.60;0.55;;;18.90;57.90;;;;;;5082955;28;20171;-42
2022/05/08 11:54:27;;;;;;;0.40;0.40;;;18.90;57.80;;;;;;5099353;28;20095;-44
2022/05/08 11:57:16;;;;;;;0.60;0.60;;;18.80;57.80;;;;;;5099674;28;20182;-41
2022/05/08 11:59:44;;;;;;;0.50;0.50;;;18.80;57.90;;;;;;5085410;28;20497;-41
2022/05/08 12:02:10;;;;;;;0.43;0.43;;;18.80;57.90;;;;;;5085137;28;20032;-40
2022/05/08 12:04:37;;;;;;;0.77;0.70;;;18.80;57.90;;;;;;5084757;28;20178;-41
2022/05/08 12:07:13;;;;;;;0.95;0.50;;;18.80;57.80;;;;;;5085314;28;20297;-42
2022/05/08 12:09:48;;;;;;;0.88;0.60;;;18.80;57.90;;;;;;5085197;28;20020;-40
2022/05/08 12:12:29;;;;;;;0.70;0.60;;;18.80;57.90;;;;;;5085043;28;20033;-41
2022/05/08 12:15:07;;;;;;;0.45;0.45;;;18.80;57.90;;;;;;5084684;28;20088;-40
2022/05/08 12:17:42;;;;;;;0.50;0.50;;;18.70;57.90;;;;;;5091264;28;20066;-40
2022/05/08 12:20:12;;;;;;;0.57;0.57;;;18.70;57.90;;;;;;5105372;28;20265;-41
2022/05/08 12:22:39;;;;;;;0.50;0.50;;;18.70;57.90;;;;;;5102353;28;20037;-42
2022/05/08 12:25:05;;;;;;;1.02;0.50;;;18.70;57.90;;;;;;5084239;28;20027;-41
2022/05/08 12:27:33;;;;;;;2.80;0.65;;;18.70;57.90;;;;;;5074765;28;20044;-41
2022/05/08 12:29:59;;;;;;;0.50;0.50;;;18.70;57.90;;;;;;5063578;28;20037;-41
2022/05/08 12:32:26;;;;;;;1.00;0.70;;;18.70;57.90;;;;;;5064062;28;20029;-41
2022/05/08 12:34:53;;;;;;;0.50;0.47;;;18.70;57.90;;;;;;5064322;28;20079;-41
2022/05/08 12:37:20;;;;;;;0.50;0.40;;;18.70;58.00;;;;;;5073836;28;20024;-41
2022/05/08 12:39:46;;;;;;;0.50;0.50;;;18.60;58.00;;;;;;5084719;28;20020;-41
2022/05/08 12:42:12;;;;;;;0.50;0.40;;;18.70;58.00;;;;;;5084736;28;20679;-41
2022/05/08 12:44:39;;;;;;;0.50;0.50;;;18.60;58.00;;;;;;5084751;28;20024;-40
2022/05/08 12:47:06;;;;;;;0.52;0.50;;;18.70;58.10;;;;;;5084170;28;20036;-41
2022/05/08 12:49:33;;;;;;;0.40;0.40;;;18.60;58.10;;;;;;5084540;28;20024;-41
2022/05/08 12:51:59;;;;;;;0.83;0.50;;;18.70;58.20;;;;;;5084800;28;20036;-41
2022/05/08 12:54:25;;;;;;;0.60;0.60;;;18.70;58.20;;;;;;5066902;28;20409;-43
2022/05/08 12:56:52;;;;;;;0.50;0.50;;;18.60;58.10;;;;;;5067763;28;20035;-41
2022/05/08 13:02:02;;;;;;;0.50;0.50;;;18.60;58.20;;;;;;5084212;28;20031;-41
2022/05/08 13:04:28;;;;;;;1.33;0.52;;;18.60;58.30;;;;;;5084354;28;20551;-40
2022/05/08 13:06:54;;;;;;;0.82;0.50;;;18.60;58.30;;;;;;5076321;28;20043;-41
2022/05/08 13:09:21;;;;;;;0.40;0.40;;;18.60;58.40;;;;;;5084250;28;20029;-41
2022/05/08 13:11:48;;;;;;;0.90;0.63;;;18.60;58.40;;;;;;5083675;28;20068;-42
2022/05/08 13:14:14;;;;;;;1.52;0.68;;;18.60;58.40;;;;;;5084421;28;20040;-41
2022/05/08 13:16:40;;;;;;;0.60;0.60;;;18.60;58.40;;;;;;5083827;28;20029;-42
2022/05/08 13:19:06;;;;;;;0.60;0.50;;;18.60;58.50;;;;;;5091468;28;20021;-41
2022/05/08 13:21:33;;;;;;;0.75;0.60;;;18.60;58.50;;;;;;5083804;28;20451;-41